sensor_id;sensor_type;location;lat;lon;timestamp;pressure;altitude;pressure_sealevel;temperature;humidity
75290;BME280;63883;48.996;20.804;2023-04-03T00:01:35;96495.97;;;3.14;71.11
75290;BME280;63883;48.996;20.804;2023-04-03T00:04:04;96501.84;;;3.18;70.62
75290;BME280;63883;48.996;20.804;2023-04-03T00:06:31;96506.88;;;3.18;71.14
75290;BME280;63883;48.996;20.804;2023-04-03T00:08:57;96492.63;;;3.06;70.13
75290;BME280;63883;48.996;20.804;2023-04-03T00:11:23;96495.13;;;3.17;70.51
75290;BME280;63883;48.996;20.804;2023-04-03T00:13:49;96499.31;;;3.20;70.48
75290;BME280;63883;48.996;20.804;2023-04-03T00:16:15;96501.00;;;3.19;70.40
75290;BME280;63883;48.996;20.804;2023-04-03T00:18:41;96511.09;;;3.24;69.95
75290;BME280;63883;48.996;20.804;2023-04-03T00:21:07;96513.63;;;3.24;69.75
75290;BME280;63883;48.996;20.804;2023-04-03T00:23:34;96511.94;;;3.15;70.28
75290;BME280;63883;48.996;20.804;2023-04-03T00:25:59;96507.72;;;3.08;70.90
75290;BME280;63883;48.996;20.804;2023-04-03T00:28:25;96503.50;;;3.04;71.63
75290;BME280;63883;48.996;20.804;2023-04-03T00:30:52;96504.38;;;3.07;70.69
75290;BME280;63883;48.996;20.804;2023-04-03T00:33:18;96515.28;;;3.16;70.41
75290;BME280;63883;48.996;20.804;2023-04-03T00:35:47;96513.59;;;3.11;70.33
75290;BME280;63883;48.996;20.804;2023-04-03T00:38:14;96511.09;;;3.19;70.73
75290;BME280;63883;48.996;20.804;2023-04-03T00:40:45;96520.31;;;3.20;70.76
75290;BME280;63883;48.996;20.804;2023-04-03T00:43:21;96515.28;;;3.08;71.27
75290;BME280;63883;48.996;20.804;2023-04-03T00:45:55;96516.97;;;3.01;71.13
75290;BME280;63883;48.996;20.804;2023-04-03T00:50:47;96516.13;;;2.99;69.74
75290;BME280;63883;48.996;20.804;2023-04-03T00:53:17;96505.19;;;2.90;70.82
75290;BME280;63883;48.996;20.804;2023-04-03T00:55:46;96490.91;;;2.84;69.96
75290;BME280;63883;48.996;20.804;2023-04-03T00:58:15;96511.06;;;2.87;69.52
75290;BME280;63883;48.996;20.804;2023-04-03T01:00:44;96511.06;;;2.84;70.78
75290;BME280;63883;48.996;20.804;2023-04-03T01:03:12;96509.38;;;2.80;71.17
75290;BME280;63883;48.996;20.804;2023-04-03T01:05:38;96511.91;;;2.85;71.41
75290;BME280;63883;48.996;20.804;2023-04-03T01:08:04;96511.88;;;2.82;71.64
75290;BME280;63883;48.996;20.804;2023-04-03T01:10:30;96518.63;;;2.80;71.82
75290;BME280;63883;48.996;20.804;2023-04-03T01:12:56;96516.09;;;2.83;71.44
75290;BME280;63883;48.996;20.804;2023-04-03T01:15:25;96518.63;;;2.90;70.90
75290;BME280;63883;48.996;20.804;2023-04-03T01:17:54;96516.13;;;2.99;70.12
75290;BME280;63883;48.996;20.804;2023-04-03T01:25:31;96510.19;;;2.71;71.01
75290;BME280;63883;48.996;20.804;2023-04-03T01:27:57;96519.44;;;2.66;72.46
75290;BME280;63883;48.996;20.804;2023-04-03T01:30:28;96516.91;;;2.63;72.73
75290;BME280;63883;48.996;20.804;2023-04-03T01:32:56;96516.06;;;2.63;71.31
75290;BME280;63883;48.996;20.804;2023-04-03T01:35:22;96512.69;;;2.59;71.52
75290;BME280;63883;48.996;20.804;2023-04-03T01:37:48;96516.91;;;2.65;72.60
75290;BME280;63883;48.996;20.804;2023-04-03T01:40:14;96521.09;;;2.66;72.62
75290;BME280;63883;48.996;20.804;2023-04-03T01:42:40;96522.78;;;2.64;72.43
75290;BME280;63883;48.996;20.804;2023-04-03T01:45:06;96515.19;;;2.55;72.67
75290;BME280;63883;48.996;20.804;2023-04-03T01:47:32;96521.94;;;2.65;72.19
75290;BME280;63883;48.996;20.804;2023-04-03T01:49:58;96521.09;;;2.69;72.10
75290;BME280;63883;48.996;20.804;2023-04-03T01:52:24;96519.41;;;2.68;72.98
75290;BME280;63883;48.996;20.804;2023-04-03T01:54:50;96536.22;;;2.66;73.02
75290;BME280;63883;48.996;20.804;2023-04-03T01:57:16;96527.81;;;2.64;73.34
75290;BME280;63883;48.996;20.804;2023-04-03T01:59:41;96527.78;;;2.55;73.05
75290;BME280;63883;48.996;20.804;2023-04-03T02:02:07;96531.13;;;2.51;72.98
75290;BME280;63883;48.996;20.804;2023-04-03T02:04:33;96531.13;;;2.55;72.60
75290;BME280;63883;48.996;20.804;2023-04-03T02:06:59;96519.38;;;2.53;71.82
75290;BME280;63883;48.996;20.804;2023-04-03T02:09:25;96525.28;;;2.59;71.26
75290;BME280;63883;48.996;20.804;2023-04-03T02:11:52;96532.84;;;2.58;70.80
75290;BME280;63883;48.996;20.804;2023-04-03T02:14:18;96529.44;;;2.53;71.18
75290;BME280;63883;48.996;20.804;2023-04-03T02:16:44;96525.28;;;2.56;71.00
75290;BME280;63883;48.996;20.804;2023-04-03T02:19:09;96522.72;;;2.53;71.29
75290;BME280;63883;48.996;20.804;2023-04-03T02:21:35;96536.19;;;2.57;70.70
75290;BME280;63883;48.996;20.804;2023-04-03T02:24:01;96532.81;;;2.52;71.37
75290;BME280;63883;48.996;20.804;2023-04-03T02:26:27;96537.00;;;2.51;72.02
75290;BME280;63883;48.996;20.804;2023-04-03T02:28:52;96532.78;;;2.43;71.52
75290;BME280;63883;48.996;20.804;2023-04-03T02:31:18;96530.22;;;2.38;71.60
75290;BME280;63883;48.996;20.804;2023-04-03T02:33:44;96544.50;;;2.36;70.52
75290;BME280;63883;48.996;20.804;2023-04-03T02:36:10;96541.09;;;2.26;71.19
75290;BME280;63883;48.996;20.804;2023-04-03T02:38:36;96541.13;;;2.29;70.12
75290;BME280;63883;48.996;20.804;2023-04-03T02:41:07;96546.97;;;2.27;69.86
75290;BME280;63883;48.996;20.804;2023-04-03T02:43:34;96549.47;;;2.24;70.91
75290;BME280;63883;48.996;20.804;2023-04-03T02:46:00;96554.53;;;2.30;68.71
75290;BME280;63883;48.996;20.804;2023-04-03T02:48:25;96542.81;;;2.30;69.61
75290;BME280;63883;48.996;20.804;2023-04-03T02:50:51;96547.84;;;2.33;69.41
75290;BME280;63883;48.996;20.804;2023-04-03T02:53:17;96559.53;;;2.25;70.41
75290;BME280;63883;48.996;20.804;2023-04-03T02:55:44;96546.13;;;2.28;69.77
75290;BME280;63883;48.996;20.804;2023-04-03T02:58:10;96550.31;;;2.24;69.42
75290;BME280;63883;48.996;20.804;2023-04-03T03:00:37;96549.41;;;2.16;70.19
75290;BME280;63883;48.996;20.804;2023-04-03T03:03:02;96558.63;;;2.11;69.41
75290;BME280;63883;48.996;20.804;2023-04-03T03:05:28;96566.22;;;2.14;70.21
75290;BME280;63883;48.996;20.804;2023-04-03T03:07:54;96564.53;;;2.15;69.60
75290;BME280;63883;48.996;20.804;2023-04-03T03:10:21;96576.28;;;2.23;70.11
75290;BME280;63883;48.996;20.804;2023-04-03T03:12:47;96565.31;;;2.05;70.60
75290;BME280;63883;48.996;20.804;2023-04-03T03:15:13;96558.63;;;2.10;71.12
75290;BME280;63883;48.996;20.804;2023-04-03T03:17:38;96570.28;;;1.97;71.33
75290;BME280;63883;48.996;20.804;2023-04-03T03:20:05;96566.13;;;1.99;71.22
75290;BME280;63883;48.996;20.804;2023-04-03T03:22:32;96567.75;;;1.95;71.45
75290;BME280;63883;48.996;20.804;2023-04-03T03:24:58;96565.19;;;1.83;73.32
75290;BME280;63883;48.996;20.804;2023-04-03T03:27:23;96568.56;;;1.85;72.94
75290;BME280;63883;48.996;20.804;2023-04-03T03:29:50;96566.06;;;1.87;72.72
75290;BME280;63883;48.996;20.804;2023-04-03T03:32:15;96576.09;;;1.84;73.24
75290;BME280;63883;48.996;20.804;2023-04-03T03:34:41;96573.56;;;1.82;72.84
75290;BME280;63883;48.996;20.804;2023-04-03T03:37:07;96586.13;;;1.84;72.86
75290;BME280;63883;48.996;20.804;2023-04-03T03:39:33;96578.59;;;1.84;72.85
75290;BME280;63883;48.996;20.804;2023-04-03T03:41:58;96585.28;;;1.83;72.89
75290;BME280;63883;48.996;20.804;2023-04-03T03:44:24;96574.41;;;1.84;72.31
75290;BME280;63883;48.996;20.804;2023-04-03T03:46:50;96579.38;;;1.77;72.29
75290;BME280;63883;48.996;20.804;2023-04-03T03:49:15;96571.88;;;1.78;72.66
75290;BME280;63883;48.996;20.804;2023-04-03T03:51:41;96576.03;;;1.78;73.01
75290;BME280;63883;48.996;20.804;2023-04-03T03:54:07;96576.00;;;1.75;72.98
75290;BME280;63883;48.996;20.804;2023-04-03T03:56:33;96575.16;;;1.70;74.23
75290;BME280;63883;48.996;20.804;2023-04-03T03:58:59;96581.81;;;1.68;74.23
75290;BME280;63883;48.996;20.804;2023-04-03T04:01:25;96590.22;;;1.65;73.84
75290;BME280;63883;48.996;20.804;2023-04-03T04:03:51;96585.13;;;1.58;74.44
75290;BME280;63883;48.996;20.804;2023-04-03T04:06:19;96588.47;;;1.61;73.42
75290;BME280;63883;48.996;20.804;2023-04-03T04:08:45;96583.56;;;1.72;73.00
75290;BME280;63883;48.996;20.804;2023-04-03T04:11:10;96583.50;;;1.64;71.97
75290;BME280;63883;48.996;20.804;2023-04-03T04:13:36;96584.34;;;1.65;72.50
75290;BME280;63883;48.996;20.804;2023-04-03T04:16:02;96586.88;;;1.69;71.79
75290;BME280;63883;48.996;20.804;2023-04-03T04:18:28;96587.72;;;1.70;71.45
75290;BME280;63883;48.996;20.804;2023-04-03T04:20:54;96592.78;;;1.73;72.63
75290;BME280;63883;48.996;20.804;2023-04-03T04:23:20;96590.22;;;1.68;71.92
75290;BME280;63883;48.996;20.804;2023-04-03T04:25:46;96588.47;;;1.61;71.84
75290;BME280;63883;48.996;20.804;2023-04-03T04:28:12;96585.94;;;1.55;72.57
75290;BME280;63883;48.996;20.804;2023-04-03T04:30:38;96591.06;;;1.69;72.23
75290;BME280;63883;48.996;20.804;2023-04-03T04:33:04;96596.09;;;1.70;70.74
75290;BME280;63883;48.996;20.804;2023-04-03T04:35:30;96596.94;;;1.69;70.73
75290;BME280;63883;48.996;20.804;2023-04-03T04:37:56;96598.59;;;1.67;71.24
75290;BME280;63883;48.996;20.804;2023-04-03T04:40:22;96594.38;;;1.66;70.62
75290;BME280;63883;48.996;20.804;2023-04-03T04:42:48;96595.28;;;1.74;69.80
75290;BME280;63883;48.996;20.804;2023-04-03T04:45:13;96598.63;;;1.72;69.78
75290;BME280;63883;48.996;20.804;2023-04-03T04:47:40;96600.28;;;1.68;69.67
75290;BME280;63883;48.996;20.804;2023-04-03T04:50:06;96600.22;;;1.61;70.02
75290;BME280;63883;48.996;20.804;2023-04-03T04:52:33;96601.06;;;1.63;69.96
75290;BME280;63883;48.996;20.804;2023-04-03T04:54:58;96601.91;;;1.66;70.00
75290;BME280;63883;48.996;20.804;2023-04-03T04:57:25;96607.06;;;1.80;69.47
75290;BME280;63883;48.996;20.804;2023-04-03T04:59:51;96605.38;;;1.79;68.92
75290;BME280;63883;48.996;20.804;2023-04-03T05:02:17;96606.22;;;1.79;69.36
75290;BME280;63883;48.996;20.804;2023-04-03T05:04:43;96610.31;;;1.68;69.70
75290;BME280;63883;48.996;20.804;2023-04-03T05:07:08;96616.28;;;1.78;69.39
75290;BME280;63883;48.996;20.804;2023-04-03T05:09:34;96610.34;;;1.71;70.19
75290;BME280;63883;48.996;20.804;2023-04-03T05:12:00;96617.13;;;1.83;69.89
75290;BME280;63883;48.996;20.804;2023-04-03T05:14:25;96604.53;;;1.77;69.21
75290;BME280;63883;48.996;20.804;2023-04-03T05:16:51;96602.88;;;1.79;68.78
75290;BME280;63883;48.996;20.804;2023-04-03T05:19:20;96607.09;;;1.87;69.49
75290;BME280;63883;48.996;20.804;2023-04-03T05:21:46;96602.94;;;1.91;68.53
75290;BME280;63883;48.996;20.804;2023-04-03T05:24:12;96614.72;;;1.98;68.56
75290;BME280;63883;48.996;20.804;2023-04-03T05:26:38;96611.41;;;2.01;68.40
75290;BME280;63883;48.996;20.804;2023-04-03T05:29:04;96610.53;;;1.99;68.60
75290;BME280;63883;48.996;20.804;2023-04-03T05:31:30;96612.19;;;1.95;68.26
75290;BME280;63883;48.996;20.804;2023-04-03T05:33:56;96613.84;;;1.87;68.74
75290;BME280;63883;48.996;20.804;2023-04-03T05:36:22;96616.28;;;1.81;68.46
75290;BME280;63883;48.996;20.804;2023-04-03T05:38:48;96622.25;;;1.92;68.97
75290;BME280;63883;48.996;20.804;2023-04-03T05:41:15;96620.53;;;1.89;67.87
75290;BME280;63883;48.996;20.804;2023-04-03T05:43:41;96626.47;;;1.99;68.31
75290;BME280;63883;48.996;20.804;2023-04-03T05:46:11;96633.94;;;1.87;67.78
75290;BME280;63883;48.996;20.804;2023-04-03T05:48:37;96637.22;;;1.77;68.61
75290;BME280;63883;48.996;20.804;2023-04-03T05:51:04;96635.63;;;1.89;68.95
75290;BME280;63883;48.996;20.804;2023-04-03T05:53:33;96638.19;;;1.97;68.72
75290;BME280;63883;48.996;20.804;2023-04-03T05:56:01;96624.84;;;2.07;67.68
75290;BME280;63883;48.996;20.804;2023-04-03T05:58:26;96639.84;;;1.95;67.62
75290;BME280;63883;48.996;20.804;2023-04-03T06:00:52;96642.41;;;2.03;66.90
75290;BME280;63883;48.996;20.804;2023-04-03T06:03:18;96638.25;;;2.06;67.13
75290;BME280;63883;48.996;20.804;2023-04-03T06:05:44;96645.88;;;2.15;66.17
75290;BME280;63883;48.996;20.804;2023-04-03T06:08:11;96655.81;;;1.99;67.46
75290;BME280;63883;48.996;20.804;2023-04-03T06:10:38;96660.91;;;2.09;67.72
75290;BME280;63883;48.996;20.804;2023-04-03T06:13:04;96653.34;;;2.06;67.81
75290;BME280;63883;48.996;20.804;2023-04-03T06:15:30;96653.41;;;2.15;67.65
75290;BME280;63883;48.996;20.804;2023-04-03T06:17:55;96656.72;;;2.11;66.16
75290;BME280;63883;48.996;20.804;2023-04-03T06:20:22;96650.84;;;2.06;66.19
75290;BME280;63883;48.996;20.804;2023-04-03T06:22:48;96655.16;;;2.25;66.19
75290;BME280;63883;48.996;20.804;2023-04-03T06:25:14;96653.50;;;2.27;65.19
75290;BME280;63883;48.996;20.804;2023-04-03T06:27:40;96660.22;;;2.28;65.38
75290;BME280;63883;48.996;20.804;2023-04-03T06:30:06;96662.69;;;2.24;63.54
75290;BME280;63883;48.996;20.804;2023-04-03T06:32:32;96660.22;;;2.28;65.11
75290;BME280;63883;48.996;20.804;2023-04-03T06:34:58;96666.94;;;2.32;65.21
75290;BME280;63883;48.996;20.804;2023-04-03T06:37:24;96670.31;;;2.36;64.44
75290;BME280;63883;48.996;20.804;2023-04-03T06:39:54;96668.53;;;2.18;65.29
75290;BME280;63883;48.996;20.804;2023-04-03T06:42:20;96677.78;;;2.24;66.14
75290;BME280;63883;48.996;20.804;2023-04-03T06:44:47;96679.53;;;2.35;65.01
75290;BME280;63883;48.996;20.804;2023-04-03T06:47:14;96684.69;;;2.55;64.66
75290;BME280;63883;48.996;20.804;2023-04-03T06:49:40;96683.91;;;2.64;64.24
75290;BME280;63883;48.996;20.804;2023-04-03T06:52:06;96686.34;;;2.53;63.99
75290;BME280;63883;48.996;20.804;2023-04-03T06:54:32;96697.28;;;2.60;61.90
75290;BME280;63883;48.996;20.804;2023-04-03T06:56:58;96706.34;;;2.32;61.61
75290;BME280;63883;48.996;20.804;2023-04-03T06:59:24;96693.81;;;2.35;61.93
75290;BME280;63883;48.996;20.804;2023-04-03T07:01:51;96692.22;;;2.54;62.55
75290;BME280;63883;48.996;20.804;2023-04-03T07:04:17;96690.59;;;2.62;61.40
75290;BME280;63883;48.996;20.804;2023-04-03T07:06:46;96696.41;;;2.50;62.40
75290;BME280;63883;48.996;20.804;2023-04-03T07:09:14;96707.31;;;2.54;61.34
75290;BME280;63883;48.996;20.804;2023-04-03T07:11:40;96704.88;;;2.67;62.75
75290;BME280;63883;48.996;20.804;2023-04-03T07:14:06;96701.56;;;2.70;62.05
75290;BME280;63883;48.996;20.804;2023-04-03T07:16:34;96713.25;;;2.63;62.64
75290;BME280;63883;48.996;20.804;2023-04-03T07:19:01;96713.19;;;2.54;62.33
75290;BME280;63883;48.996;20.804;2023-04-03T07:21:28;96723.31;;;2.57;63.91
75290;BME280;63883;48.996;20.804;2023-04-03T07:23:54;96730.03;;;2.63;61.87
75290;BME280;63883;48.996;20.804;2023-04-03T07:26:21;96726.69;;;2.67;62.37
75290;BME280;63883;48.996;20.804;2023-04-03T07:28:48;96727.63;;;2.78;63.01
75290;BME280;63883;48.996;20.804;2023-04-03T07:31:15;96734.34;;;2.82;63.50
75290;BME280;63883;48.996;20.804;2023-04-03T07:33:43;96731.00;;;2.89;61.96
75290;BME280;63883;48.996;20.804;2023-04-03T07:36:10;96732.66;;;2.78;62.61
75290;BME280;63883;48.996;20.804;2023-04-03T07:38:36;96730.19;;;2.90;62.39
75290;BME280;63883;48.996;20.804;2023-04-03T07:41:03;96720.16;;;3.04;62.97
75290;BME280;63883;48.996;20.804;2023-04-03T07:43:29;96722.75;;;3.16;62.50
75290;BME280;63883;48.996;20.804;2023-04-03T07:45:55;96721.84;;;2.99;63.03
75290;BME280;63883;48.996;20.804;2023-04-03T07:48:23;96730.34;;;3.27;63.52
75290;BME280;63883;48.996;20.804;2023-04-03T07:50:49;96731.19;;;3.27;62.27
75290;BME280;63883;48.996;20.804;2023-04-03T07:53:15;96734.59;;;3.43;61.94
75290;BME280;63883;48.996;20.804;2023-04-03T07:55:41;96714.41;;;3.35;60.55
75290;BME280;63883;48.996;20.804;2023-04-03T07:58:10;96730.34;;;3.28;61.00
75290;BME280;63883;48.996;20.804;2023-04-03T08:00:37;96727.91;;;3.57;60.56
75290;BME280;63883;48.996;20.804;2023-04-03T08:03:03;96727.13;;;3.98;60.43
75290;BME280;63883;48.996;20.804;2023-04-03T08:05:28;96733.00;;;4.18;58.92
75290;BME280;63883;48.996;20.804;2023-04-03T08:07:54;96725.47;;;4.21;58.56
75290;BME280;63883;48.996;20.804;2023-04-03T08:10:20;96721.25;;;4.08;58.79
75290;BME280;63883;48.996;20.804;2023-04-03T08:12:47;96725.44;;;4.19;59.90
75290;BME280;63883;48.996;20.804;2023-04-03T08:15:13;96733.88;;;4.00;60.30
75290;BME280;63883;48.996;20.804;2023-04-03T08:17:39;96734.69;;;3.91;59.47
75290;BME280;63883;48.996;20.804;2023-04-03T08:20:05;96727.16;;;3.96;60.31
75290;BME280;63883;48.996;20.804;2023-04-03T08:22:33;96723.72;;;3.58;60.99
75290;BME280;63883;48.996;20.804;2023-04-03T08:24:59;96738.81;;;3.48;61.13
75290;BME280;63883;48.996;20.804;2023-04-03T08:27:25;96740.56;;;3.77;60.28
75290;BME280;63883;48.996;20.804;2023-04-03T08:29:51;96744.81;;;3.96;59.86
75290;BME280;63883;48.996;20.804;2023-04-03T08:32:17;96747.31;;;4.01;59.00
75290;BME280;63883;48.996;20.804;2023-04-03T08:34:44;96739.75;;;4.01;57.91
75290;BME280;63883;48.996;20.804;2023-04-03T08:37:10;96735.56;;;4.10;59.67
75290;BME280;63883;48.996;20.804;2023-04-03T08:39:36;96744.75;;;3.82;59.39
75290;BME280;63883;48.996;20.804;2023-04-03T08:42:07;96739.78;;;4.10;59.69
75290;BME280;63883;48.996;20.804;2023-04-03T08:44:47;96751.56;;;4.32;57.77
75290;BME280;63883;48.996;20.804;2023-04-03T08:49:47;96743.13;;;4.35;59.89
75290;BME280;63883;48.996;20.804;2023-04-03T08:52:19;96738.88;;;4.65;57.99
75290;BME280;63883;48.996;20.804;2023-04-03T08:54:55;96754.81;;;5.01;58.03
75290;BME280;63883;48.996;20.804;2023-04-03T08:57:41;96755.75;;;4.60;55.28
75290;BME280;63883;48.996;20.804;2023-04-03T09:02:44;96752.38;;;4.46;56.02
75290;BME280;63883;48.996;20.804;2023-04-03T09:05:20;96743.09;;;4.57;55.62
75290;BME280;63883;48.996;20.804;2023-04-03T09:07:59;96757.44;;;4.39;57.71
75290;BME280;63883;48.996;20.804;2023-04-03T09:10:28;96738.09;;;4.16;56.01
75290;BME280;63883;48.996;20.804;2023-04-03T09:13:06;96765.00;;;4.32;56.96
75290;BME280;63883;48.996;20.804;2023-04-03T09:15:36;96762.47;;;4.58;54.12
75290;BME280;63883;48.996;20.804;2023-04-03T09:18:25;96756.59;;;4.43;53.09
75290;BME280;63883;48.996;20.804;2023-04-03T09:26:01;96766.66;;;4.78;53.30
75290;BME280;63883;48.996;20.804;2023-04-03T09:28:34;96771.72;;;4.59;54.40
75290;BME280;63883;48.996;20.804;2023-04-03T09:31:01;96781.81;;;4.26;56.10
75290;BME280;63883;48.996;20.804;2023-04-03T09:33:28;96791.91;;;3.96;56.18
75290;BME280;63883;48.996;20.804;2023-04-03T09:35:55;96784.28;;;3.79;54.69
75290;BME280;63883;48.996;20.804;2023-04-03T09:38:21;96786.84;;;3.86;55.22
75290;BME280;63883;48.996;20.804;2023-04-03T09:41:12;96792.72;;;3.91;55.00
75290;BME280;63883;48.996;20.804;2023-04-03T09:43:52;96804.47;;;3.83;55.20
75290;BME280;63883;48.996;20.804;2023-04-03T09:46:24;96811.19;;;3.77;56.27
75290;BME280;63883;48.996;20.804;2023-04-03T09:48:58;96806.91;;;3.61;55.26
75290;BME280;63883;48.996;20.804;2023-04-03T09:51:28;96796.88;;;3.71;54.73
75290;BME280;63883;48.996;20.804;2023-04-03T09:53:55;96798.59;;;3.84;55.10
75290;BME280;63883;48.996;20.804;2023-04-03T09:56:27;96806.13;;;3.72;55.42
75290;BME280;63883;48.996;20.804;2023-04-03T10:04:17;96812.78;;;5.48;52.59
75290;BME280;63883;48.996;20.804;2023-04-03T10:06:54;96800.09;;;5.65;51.26
75290;BME280;63883;48.996;20.804;2023-04-03T10:09:30;96791.19;;;6.42;48.76
75290;BME280;63883;48.996;20.804;2023-04-03T10:12:10;96792.56;;;6.78;48.76
75290;BME280;63883;48.996;20.804;2023-04-03T10:14:39;96788.53;;;6.61;47.84
75290;BME280;63883;48.996;20.804;2023-04-03T10:17:27;96799.06;;;7.06;48.13
75290;BME280;63883;48.996;20.804;2023-04-03T10:20:05;96799.38;;;6.76;46.30
75290;BME280;63883;48.996;20.804;2023-04-03T10:36:45;96801.16;;;6.63;46.76
75290;BME280;63883;48.996;20.804;2023-04-03T10:42:08;96793.16;;;6.03;47.48
75290;BME280;63883;48.996;20.804;2023-04-03T10:47:20;96797.75;;;6.67;48.17
75290;BME280;63883;48.996;20.804;2023-04-03T10:52:39;96806.56;;;7.17;44.40
75290;BME280;63883;48.996;20.804;2023-04-03T10:55:21;96806.44;;;7.29;46.77
75290;BME280;63883;48.996;20.804;2023-04-03T10:57:50;96796.69;;;7.67;47.08
75290;BME280;63883;48.996;20.804;2023-04-03T11:00:19;96801.13;;;8.16;44.46
75290;BME280;63883;48.996;20.804;2023-04-03T11:02:54;96811.03;;;6.93;45.97
75290;BME280;63883;48.996;20.804;2023-04-03T11:08:02;96810.03;;;8.46;43.03
75290;BME280;63883;48.996;20.804;2023-04-03T11:16:00;96817.41;;;6.35;48.40
75290;BME280;63883;48.996;20.804;2023-04-03T11:18:41;96816.66;;;6.23;49.11
75290;BME280;63883;48.996;20.804;2023-04-03T11:21:20;96821.91;;;5.96;45.92
75290;BME280;63883;48.996;20.804;2023-04-03T11:23:47;96811.09;;;7.65;46.53
75290;BME280;63883;48.996;20.804;2023-04-03T11:26:16;96807.06;;;8.15;42.90
75290;BME280;63883;48.996;20.804;2023-04-03T11:28:43;96805.34;;;8.72;43.66
75290;BME280;63883;48.996;20.804;2023-04-03T11:36:47;96822.00;;;8.38;43.20
75290;BME280;63883;48.996;20.804;2023-04-03T11:41:44;96842.03;;;6.19;45.71
75290;BME280;63883;48.996;20.804;2023-04-03T11:44:33;96833.78;;;5.73;47.68
75290;BME280;63883;48.996;20.804;2023-04-03T11:47:01;96842.97;;;6.03;48.23
75290;BME280;63883;48.996;20.804;2023-04-03T12:00:50;96833.06;;;5.37;48.60
75290;BME280;63883;48.996;20.804;2023-04-03T12:05:54;96844.13;;;4.63;51.14
75290;BME280;63883;48.996;20.804;2023-04-03T12:16:54;96856.78;;;4.60;51.76
75290;BME280;63883;48.996;20.804;2023-04-03T12:19:35;96857.59;;;4.96;50.79
75290;BME280;63883;48.996;20.804;2023-04-03T12:24:31;96860.97;;;4.67;49.24
75290;BME280;63883;48.996;20.804;2023-04-03T12:45:40;96865.19;;;4.88;49.48
75290;BME280;63883;48.996;20.804;2023-04-03T12:48:13;96850.84;;;4.29;51.02
75290;BME280;63883;48.996;20.804;2023-04-03T12:50:40;96863.28;;;3.69;53.76
75290;BME280;63883;48.996;20.804;2023-04-03T12:53:12;96863.38;;;3.88;53.91
75290;BME280;63883;48.996;20.804;2023-04-03T12:55:38;96860.81;;;3.85;54.39
75290;BME280;63883;48.996;20.804;2023-04-03T12:58:34;96875.97;;;3.87;53.19
75290;BME280;63883;48.996;20.804;2023-04-03T13:01:11;96871.72;;;3.72;52.93
75290;BME280;63883;48.996;20.804;2023-04-03T13:03:40;96879.25;;;3.65;53.89
75290;BME280;63883;48.996;20.804;2023-04-03T13:06:06;96880.81;;;3.43;55.00
75290;BME280;63883;48.996;20.804;2023-04-03T13:08:32;96880.06;;;3.61;54.59
75290;BME280;63883;48.996;20.804;2023-04-03T13:11:02;96876.75;;;3.77;52.98
75290;BME280;63883;48.996;20.804;2023-04-03T13:13:29;96874.19;;;3.60;52.68
75290;BME280;63883;48.996;20.804;2023-04-03T13:15:55;96870.88;;;3.78;53.93
75290;BME280;63883;48.996;20.804;2023-04-03T13:20:52;96870.72;;;3.38;54.08
75290;BME280;63883;48.996;20.804;2023-04-03T13:23:19;96870.78;;;3.55;54.69
75290;BME280;63883;48.996;20.804;2023-04-03T13:25:46;96876.75;;;3.75;53.38
75290;BME280;63883;48.996;20.804;2023-04-03T13:28:16;96885.88;;;3.49;54.31
75290;BME280;63883;48.996;20.804;2023-04-03T13:33:26;96883.97;;;3.11;56.26
75290;BME280;63883;48.996;20.804;2023-04-03T13:35:56;96889.88;;;3.12;54.93
75290;BME280;63883;48.996;20.804;2023-04-03T13:38:26;96881.84;;;3.86;53.50
75290;BME280;63883;48.996;20.804;2023-04-03T13:40:55;96884.53;;;4.44;50.58
75290;BME280;63883;48.996;20.804;2023-04-03T13:43:26;96878.53;;;3.98;51.43
75290;BME280;63883;48.996;20.804;2023-04-03T13:48:35;96887.06;;;2.71;55.57
75290;BME280;63883;48.996;20.804;2023-04-03T13:51:04;96890.38;;;2.65;55.35
75290;BME280;63883;48.996;20.804;2023-04-03T13:53:33;96898.47;;;2.35;55.75
75290;BME280;63883;48.996;20.804;2023-04-03T13:58:27;96901.50;;;2.04;54.15
75290;BME280;63883;48.996;20.804;2023-04-03T14:01:07;96892.44;;;2.20;54.00
75290;BME280;63883;48.996;20.804;2023-04-03T14:03:51;96883.75;;;1.90;53.46
75290;BME280;63883;48.996;20.804;2023-04-03T14:06:17;96889.59;;;1.86;54.29
75290;BME280;63883;48.996;20.804;2023-04-03T14:08:45;96898.06;;;1.96;55.41
75290;BME280;63883;48.996;20.804;2023-04-03T14:11:20;96884.53;;;1.88;53.70
75290;BME280;63883;48.996;20.804;2023-04-03T14:13:47;96880.25;;;1.78;55.82
75290;BME280;63883;48.996;20.804;2023-04-03T14:16:21;96891.25;;;1.89;56.67
75290;BME280;63883;48.996;20.804;2023-04-03T14:18:50;96892.81;;;1.78;56.66
75290;BME280;63883;48.996;20.804;2023-04-03T14:21:17;96884.94;;;1.50;56.70
75290;BME280;63883;48.996;20.804;2023-04-03T14:23:45;96881.63;;;1.54;58.13
75290;BME280;63883;48.996;20.804;2023-04-03T14:26:21;96893.22;;;1.42;56.29
75290;BME280;63883;48.996;20.804;2023-04-03T14:28:50;96885.69;;;1.43;57.07
75290;BME280;63883;48.996;20.804;2023-04-03T14:31:17;96884.84;;;1.43;58.00
75290;BME280;63883;48.996;20.804;2023-04-03T14:33:44;96882.25;;;1.35;58.37
75290;BME280;63883;48.996;20.804;2023-04-03T14:36:15;96893.63;;;1.12;58.39
75290;BME280;63883;48.996;20.804;2023-04-03T14:38:42;96892.69;;;1.05;57.93
75290;BME280;63883;48.996;20.804;2023-04-03T14:41:11;96895.16;;;1.01;57.17
75290;BME280;63883;48.996;20.804;2023-04-03T14:43:37;96891.84;;;1.05;56.39
75290;BME280;63883;48.996;20.804;2023-04-03T14:46:04;96899.53;;;1.14;56.98
75290;BME280;63883;48.996;20.804;2023-04-03T14:48:30;96890.31;;;1.16;58.00
75290;BME280;63883;48.996;20.804;2023-04-03T14:50:56;96901.09;;;1.07;58.38
75290;BME280;63883;48.996;20.804;2023-04-03T14:53:23;96905.31;;;1.10;58.44
75290;BME280;63883;48.996;20.804;2023-04-03T14:55:50;96905.28;;;1.07;58.58
75290;BME280;63883;48.996;20.804;2023-04-03T14:58:18;96897.03;;;1.17;57.95
75290;BME280;63883;48.996;20.804;2023-04-03T15:00:44;96901.97;;;1.11;56.70